Time;durP1;ratioP1;P1;durP2;ratioP2;P2;SDS_P1;SDS_P2;PMS_P1;PMS_P2;Temp;Humidity;BMP_temperature;BMP_pressure;BME280_temperature;BME280_humidity;BME280_pressure;Samples;Min_cycle;Max_cycle;Signal;HPM_P1;HPM_P2
2023/07/24 00:00:33;;;;;;;2.33;2.22;;;;;;;;;;6261181;28;20498;-79
2023/07/24 00:03:37;;;;;;;2.58;2.40;;;;;;;;;;6261503;28;20470;-79
2023/07/24 00:06:41;;;;;;;2.80;2.70;;;;;;;;;;6261097;28;20533;-80
2023/07/24 00:13:06;;;;;;;3.08;2.50;;;;;;;;;;6261545;28;20236;-79
2023/07/24 00:16:11;;;;;;;2.33;2.00;;;;;;;;;;6282948;28;20280;-76
2023/07/24 00:19:15;;;;;;;2.45;2.25;;;;;;;;;;6266938;28;20236;-80
2023/07/24 00:22:19;;;;;;;2.42;2.22;;;;;;;;;;6260863;28;20243;-80
2023/07/24 00:25:23;;;;;;;6.90;2.30;;;;;;;;;;6261026;28;20256;-79
2023/07/24 00:28:27;;;;;;;2.08;2.08;;;;;;;;;;6260986;28;20514;-80
2023/07/24 00:31:32;;;;;;;3.00;2.10;;;;;;;;;;6275981;28;20271;-79
2023/07/24 00:34:36;;;;;;;3.15;2.25;;;;;;;;;;6259286;28;20337;-79
2023/07/24 00:37:39;;;;;;;2.72;2.50;;;;;;;;;;6275801;28;20548;-80
2023/07/24 00:40:43;;;;;;;2.42;2.33;;;;;;;;;;6276116;28;20267;-79
2023/07/24 00:43:47;;;;;;;2.72;2.53;;;;;;;;;;6260544;28;20417;-79
2023/07/24 00:46:53;;;;;;;3.17;2.88;;;;;;;;;;6260810;28;20249;-79
2023/07/24 00:49:57;;;;;;;2.55;2.45;;;;;;;;;;6260312;28;20230;-79
2023/07/24 00:53:01;;;;;;;2.50;2.40;;;;;;;;;;6260517;28;20433;-79
2023/07/24 00:56:05;;;;;;;3.55;2.90;;;;;;;;;;6260416;28;20264;-79
2023/07/24 00:59:09;;;;;;;4.10;2.88;;;;;;;;;;6260701;28;20248;-79
2023/07/24 01:02:14;;;;;;;2.65;2.50;;;;;;;;;;6260618;28;20283;-79
2023/07/24 01:05:18;;;;;;;2.90;2.55;;;;;;;;;;6258735;28;20447;-79
2023/07/24 01:08:22;;;;;;;3.05;2.85;;;;;;;;;;6279030;28;20271;-79
2023/07/24 01:11:29;;;;;;;2.80;2.70;;;;;;;;;;6258956;28;20275;-80
2023/07/24 01:14:37;;;;;;;3.53;2.90;;;;;;;;;;6260632;28;20236;-79
2023/07/24 01:17:47;;;;;;;2.90;2.70;;;;;;;;;;6260393;28;20276;-79
2023/07/24 01:20:54;;;;;;;3.05;2.92;;;;;;;;;;6261587;28;20561;-79
2023/07/24 01:24:03;;;;;;;2.72;2.63;;;;;;;;;;6259060;28;20268;-79
2023/07/24 01:27:09;;;;;;;3.05;2.95;;;;;;;;;;6260266;28;20244;-79
2023/07/24 01:30:17;;;;;;;4.15;2.90;;;;;;;;;;6258752;28;20272;-78
2023/07/24 01:33:21;;;;;;;6.50;2.60;;;;;;;;;;6259876;28;20245;-79
2023/07/24 01:36:25;;;;;;;3.13;2.80;;;;;;;;;;6258140;28;20296;-79
2023/07/24 01:39:29;;;;;;;3.30;2.83;;;;;;;;;;6259013;28;20267;-80
2023/07/24 01:42:35;;;;;;;2.72;2.50;;;;;;;;;;6273120;28;20204;-80
2023/07/24 01:45:39;;;;;;;2.80;2.60;;;;;;;;;;6265109;28;20271;-79
2023/07/24 01:48:42;;;;;;;2.78;2.67;;;;;;;;;;6264435;28;20435;-79
2023/07/24 01:51:46;;;;;;;2.75;2.65;;;;;;;;;;6279461;28;20552;-79
2023/07/24 01:54:50;;;;;;;3.20;3.10;;;;;;;;;;6279884;28;20263;-79
2023/07/24 01:57:55;;;;;;;3.13;2.58;;;;;;;;;;6264353;28;20268;-79
2023/07/24 02:00:59;;;;;;;3.13;2.88;;;;;;;;;;6262551;28;20276;-79
2023/07/24 02:04:03;;;;;;;2.95;2.85;;;;;;;;;;6263767;28;20549;-79
2023/07/24 02:07:06;;;;;;;3.45;3.00;;;;;;;;;;6263916;28;20243;-79
2023/07/24 02:10:11;;;;;;;3.28;3.05;;;;;;;;;;6279530;28;20272;-79
2023/07/24 02:13:16;;;;;;;3.13;2.97;;;;;;;;;;6264282;28;20293;-79
2023/07/24 02:16:25;;;;;;;4.82;2.92;;;;;;;;;;6263758;28;20233;-79
2023/07/24 02:19:28;;;;;;;3.10;3.00;;;;;;;;;;6245900;28;20272;-79
2023/07/24 02:22:32;;;;;;;2.75;2.63;;;;;;;;;;6245452;28;20448;-79
2023/07/24 02:25:37;;;;;;;2.63;2.53;;;;;;;;;;6245271;28;20263;-79
2023/07/24 02:28:42;;;;;;;5.80;2.80;;;;;;;;;;6245581;28;20287;-79
2023/07/24 02:31:46;;;;;;;3.20;2.97;;;;;;;;;;6261887;28;20279;-79
2023/07/24 02:34:50;;;;;;;3.25;3.15;;;;;;;;;;6263613;28;20240;-79
2023/07/24 02:37:54;;;;;;;3.70;2.80;;;;;;;;;;6278209;28;20300;-79
2023/07/24 02:40:58;;;;;;;3.75;3.08;;;;;;;;;;6263123;28;20240;-79
2023/07/24 02:44:03;;;;;;;4.07;2.90;;;;;;;;;;6263153;28;20248;-78
2023/07/24 02:47:07;;;;;;;3.47;3.20;;;;;;;;;;6278386;28;20271;-79
2023/07/24 02:50:11;;;;;;;2.97;2.78;;;;;;;;;;6245720;28;20521;-79
2023/07/24 02:53:14;;;;;;;3.15;2.83;;;;;;;;;;6278263;28;20327;-79
2023/07/24 02:56:18;;;;;;;3.17;2.75;;;;;;;;;;6263336;28;20260;-78
2023/07/24 02:59:23;;;;;;;3.42;3.22;;;;;;;;;;6262953;28;20371;-79
2023/07/24 03:02:27;;;;;;;3.17;2.80;;;;;;;;;;6277461;28;20313;-79
2023/07/24 03:05:31;;;;;;;3.10;2.80;;;;;;;;;;6262433;28;20553;-78
2023/07/24 03:08:35;;;;;;;2.80;2.50;;;;;;;;;;6274523;28;20236;-79
2023/07/24 03:11:39;;;;;;;2.97;2.70;;;;;;;;;;6261975;28;20260;-78
2023/07/24 03:14:44;;;;;;;2.90;2.70;;;;;;;;;;6277942;28;20363;-79
2023/07/24 03:17:48;;;;;;;2.80;2.70;;;;;;;;;;6260574;28;20292;-79
2023/07/24 03:20:52;;;;;;;3.80;2.72;;;;;;;;;;6277316;28;20563;-78
2023/07/24 03:23:56;;;;;;;4.40;3.05;;;;;;;;;;6262378;28;20244;-78
2023/07/24 03:27:00;;;;;;;2.70;2.60;;;;;;;;;;6262357;28;20235;-79
2023/07/24 03:30:07;;;;;;;2.88;2.88;;;;;;;;;;6262467;28;20236;-79
2023/07/24 03:33:12;;;;;;;3.13;2.95;;;;;;;;;;6244428;28;20470;-79
2023/07/24 03:36:15;;;;;;;3.47;3.28;;;;;;;;;;6265280;28;20273;-78
2023/07/24 03:39:19;;;;;;;3.80;3.50;;;;;;;;;;6262435;28;20264;-79
2023/07/24 03:42:27;;;;;;;3.70;3.45;;;;;;;;;;6261778;28;20240;-78
2023/07/24 03:45:32;;;;;;;3.60;3.40;;;;;;;;;;6264989;28;20232;-79
2023/07/24 03:48:36;;;;;;;4.15;3.83;;;;;;;;;;6261756;28;20268;-78
2023/07/24 03:51:40;;;;;;;4.10;3.78;;;;;;;;;;6261228;28;20296;-79
2023/07/24 03:54:44;;;;;;;4.32;4.03;;;;;;;;;;6261207;28;20236;-78
2023/07/24 03:57:47;;;;;;;4.40;4.07;;;;;;;;;;6261126;28;20268;-79
2023/07/24 04:00:53;;;;;;;4.93;4.43;;;;;;;;;;6276776;28;20450;-79
2023/07/24 04:03:57;;;;;;;4.28;3.90;;;;;;;;;;6260953;28;20292;-78
2023/07/24 04:07:01;;;;;;;5.20;4.50;;;;;;;;;;6260495;28;20249;-78
2023/07/24 04:10:06;;;;;;;7.65;4.53;;;;;;;;;;6260912;28;20248;-78
2023/07/24 04:13:10;;;;;;;4.60;4.30;;;;;;;;;;6261225;28;20305;-79
2023/07/24 04:16:15;;;;;;;5.45;4.95;;;;;;;;;;6261057;28;20240;-78
2023/07/24 04:19:19;;;;;;;5.93;5.00;;;;;;;;;;6260577;28;20268;-79
2023/07/24 04:22:22;;;;;;;5.93;4.95;;;;;;;;;;6260999;28;20241;-79
2023/07/24 04:25:26;;;;;;;8.35;4.63;;;;;;;;;;6260648;28;20235;-78
2023/07/24 04:28:30;;;;;;;4.38;4.07;;;;;;;;;;6260603;28;20248;-79
2023/07/24 04:31:35;;;;;;;3.60;3.40;;;;;;;;;;6263059;28;20249;-78
2023/07/24 04:34:39;;;;;;;5.68;4.47;;;;;;;;;;6272506;28;20248;-80
2023/07/24 04:37:43;;;;;;;4.22;3.92;;;;;;;;;;6260436;28;20244;-79
2023/07/24 04:40:47;;;;;;;7.82;3.90;;;;;;;;;;6260879;28;20244;-79
2023/07/24 04:43:50;;;;;;;4.20;3.88;;;;;;;;;;6260514;28;20539;-79
2023/07/24 04:46:56;;;;;;;3.88;3.58;;;;;;;;;;6260861;28;20235;-79
2023/07/24 04:50:00;;;;;;;3.50;3.30;;;;;;;;;;6259140;28;20295;-79
2023/07/24 04:53:04;;;;;;;3.53;3.33;;;;;;;;;;6260489;28;20244;-79
2023/07/24 04:56:07;;;;;;;4.50;4.20;;;;;;;;;;6260803;28;20248;-79
2023/07/24 04:59:11;;;;;;;3.97;3.78;;;;;;;;;;6260396;28;20268;-79
2023/07/24 05:02:16;;;;;;;4.35;3.95;;;;;;;;;;6260309;28;20575;-80
2023/07/24 05:05:20;;;;;;;3.83;3.60;;;;;;;;;;6260620;28;20434;-79
2023/07/24 05:08:24;;;;;;;4.32;4.03;;;;;;;;;;6260779;28;20249;-80
2023/07/24 05:11:28;;;;;;;4.22;3.92;;;;;;;;;;6260508;28;20609;-80
2023/07/24 05:14:32;;;;;;;4.07;3.80;;;;;;;;;;6260377;28;20410;-78
2023/07/24 05:17:37;;;;;;;3.83;3.53;;;;;;;;;;6261219;28;20549;-78
2023/07/24 05:20:44;;;;;;;4.43;3.90;;;;;;;;;;6264879;28;20261;-79
2023/07/24 05:23:48;;;;;;;4.20;3.83;;;;;;;;;;6265367;28;20253;-79
2023/07/24 05:26:51;;;;;;;3.10;3.05;;;;;;;;;;6264043;28;20267;-79
2023/07/24 05:29:55;;;;;;;3.25;3.05;;;;;;;;;;6265236;28;20247;-78
2023/07/24 05:33:01;;;;;;;4.82;3.58;;;;;;;;;;6280271;28;20269;-80
2023/07/24 05:36:05;;;;;;;3.72;3.47;;;;;;;;;;6264684;28;20260;-78
2023/07/24 05:39:09;;;;;;;3.50;3.20;;;;;;;;;;6264780;28;20264;-79
2023/07/24 05:42:13;;;;;;;3.45;3.30;;;;;;;;;;6265166;28;20245;-78
2023/07/24 05:45:17;;;;;;;3.05;2.90;;;;;;;;;;6264541;28;20236;-78
2023/07/24 05:48:22;;;;;;;3.53;2.95;;;;;;;;;;6264824;28;20430;-78
2023/07/24 05:51:26;;;;;;;3.10;3.00;;;;;;;;;;6264639;28;20332;-78
2023/07/24 05:54:29;;;;;;;3.60;3.10;;;;;;;;;;6264385;28;20401;-80
2023/07/24 05:57:33;;;;;;;3.50;3.30;;;;;;;;;;6269250;28;20220;-80
2023/07/24 06:00:37;;;;;;;5.72;3.13;;;;;;;;;;6269925;28;20287;-78
2023/07/24 06:03:42;;;;;;;2.90;2.70;;;;;;;;;;6264044;28;20283;-78
2023/07/24 06:06:46;;;;;;;3.38;2.80;;;;;;;;;;6267825;28;20244;-79
2023/07/24 06:09:50;;;;;;;2.97;2.85;;;;;;;;;;6264720;28;20243;-79
2023/07/24 06:12:53;;;;;;;2.90;2.70;;;;;;;;;;6264229;28;20241;-79
2023/07/24 06:15:58;;;;;;;2.97;2.72;;;;;;;;;;6263820;28;20237;-80
2023/07/24 06:19:03;;;;;;;3.70;2.67;;;;;;;;;;6263803;28;20268;-78
2023/07/24 06:22:07;;;;;;;2.75;2.47;;;;;;;;;;6263897;28;20256;-79
2023/07/24 06:25:11;;;;;;;2.30;2.22;;;;;;;;;;6263985;28;20244;-79
2023/07/24 06:28:15;;;;;;;7.13;2.40;;;;;;;;;;6263723;28;20394;-80
2023/07/24 06:31:18;;;;;;;2.55;2.28;;;;;;;;;;6262599;28;20566;-81
2023/07/24 06:34:24;;;;;;;2.13;2.03;;;;;;;;;;6263301;28;20244;-80
2023/07/24 06:37:28;;;;;;;2.30;2.10;;;;;;;;;;6263427;28;20541;-81
2023/07/24 06:40:31;;;;;;;2.10;2.00;;;;;;;;;;6267711;28;20268;-81
2023/07/24 06:43:35;;;;;;;2.40;2.20;;;;;;;;;;6278903;28;20272;-80
2023/07/24 06:46:39;;;;;;;2.40;2.20;;;;;;;;;;6263630;28;20244;-80
2023/07/24 06:49:44;;;;;;;1.95;1.88;;;;;;;;;;6263238;28;20415;-81
2023/07/24 06:52:50;;;;;;;6.80;2.20;;;;;;;;;;6265408;28;20244;-81
2023/07/24 06:55:54;;;;;;;9.45;2.00;;;;;;;;;;6266764;28;20245;-80
2023/07/24 06:58:58;;;;;;;6.53;2.15;;;;;;;;;;6264060;28;20320;-81
2023/07/24 07:02:02;;;;;;;7.85;2.00;;;;;;;;;;6262897;28;20343;-82
2023/07/24 07:05:07;;;;;;;4.10;1.92;;;;;;;;;;6263016;28;20235;-80
2023/07/24 07:08:11;;;;;;;4.97;1.95;;;;;;;;;;6262747;28;20245;-80
2023/07/24 07:11:15;;;;;;;2.17;1.65;;;;;;;;;;6262885;28;20261;-80
2023/07/24 07:14:19;;;;;;;6.18;1.65;;;;;;;;;;6262903;28;20260;-79
2023/07/24 07:17:23;;;;;;;7.63;1.90;;;;;;;;;;6262617;28;20547;-80
2023/07/24 07:20:28;;;;;;;1.75;1.65;;;;;;;;;;6262721;28;20567;-80
2023/07/24 07:23:32;;;;;;;2.13;1.58;;;;;;;;;;6285021;28;20264;-81
2023/07/24 07:26:36;;;;;;;1.48;1.40;;;;;;;;;;6270030;28;20312;-80
2023/07/24 07:29:39;;;;;;;2.47;1.58;;;;;;;;;;6262129;28;20524;-80
2023/07/24 07:32:43;;;;;;;1.33;1.33;;;;;;;;;;6266706;28;20241;-79
2023/07/24 07:35:49;;;;;;;2.78;1.60;;;;;;;;;;6245181;28;20276;-80
2023/07/24 07:38:52;;;;;;;4.85;1.90;;;;;;;;;;6261809;28;20427;-80
2023/07/24 07:41:56;;;;;;;1.70;1.60;;;;;;;;;;6261693;28;20537;-80
2023/07/24 07:45:18;;;;;;;1.55;1.55;;;;;;;;;;6261929;28;20253;-80
2023/07/24 07:48:22;;;;;;;1.60;1.50;;;;;;;;;;6261817;28;20293;-80
2023/07/24 07:51:27;;;;;;;1.60;1.60;;;;;;;;;;6277073;28;20459;-80
2023/07/24 07:54:31;;;;;;;2.20;1.80;;;;;;;;;;6261757;28;20245;-80
2023/07/24 07:57:35;;;;;;;1.88;1.77;;;;;;;;;;6261375;28;20244;-80
2023/07/24 08:00:40;;;;;;;2.15;1.60;;;;;;;;;;6261554;28;20283;-80
2023/07/24 08:03:44;;;;;;;1.65;1.60;;;;;;;;;;6251731;28;20328;-80
2023/07/24 08:06:49;;;;;;;1.33;1.33;;;;;;;;;;6237287;28;20257;-80
2023/07/24 08:09:53;;;;;;;1.63;1.58;;;;;;;;;;6236960;28;20253;-80
2023/07/24 08:12:57;;;;;;;1.40;1.40;;;;;;;;;;6237091;28;20425;-79
2023/07/24 08:16:03;;;;;;;1.48;1.40;;;;;;;;;;6237202;28;20250;-79
2023/07/24 08:19:07;;;;;;;2.35;1.55;;;;;;;;;;6236928;28;20517;-80
2023/07/24 08:22:12;;;;;;;1.50;1.50;;;;;;;;;;6236766;28;20268;-80
2023/07/24 08:25:16;;;;;;;1.65;1.60;;;;;;;;;;6236796;28;20233;-80
2023/07/24 08:28:20;;;;;;;1.20;1.17;;;;;;;;;;6236738;28;20246;-80
2023/07/24 08:31:23;;;;;;;1.58;1.45;;;;;;;;;;6236457;28;20414;-80
2023/07/24 08:34:27;;;;;;;1.40;1.30;;;;;;;;;;6239707;28;20405;-80
2023/07/24 08:37:32;;;;;;;1.40;1.40;;;;;;;;;;6236597;28;20429;-80
2023/07/24 08:40:37;;;;;;;1.70;1.33;;;;;;;;;;6236542;28;20261;-81
2023/07/24 08:43:42;;;;;;;1.30;1.20;;;;;;;;;;6236344;28;20257;-80
2023/07/24 08:46:47;;;;;;;1.30;1.30;;;;;;;;;;6238315;28;20517;-81
2023/07/24 08:49:51;;;;;;;1.40;1.40;;;;;;;;;;6245955;28;20233;-81
2023/07/24 08:52:57;;;;;;;1.35;1.25;;;;;;;;;;6238116;28;20248;-81
2023/07/24 08:56:01;;;;;;;1.52;1.40;;;;;;;;;;6236496;28;20245;-80
2023/07/24 08:59:05;;;;;;;1.95;1.30;;;;;;;;;;6236066;28;20529;-81
2023/07/24 09:02:09;;;;;;;1.40;1.40;;;;;;;;;;6243634;28;20607;-80
2023/07/24 09:05:14;;;;;;;1.20;1.20;;;;;;;;;;6260597;28;20236;-81
2023/07/24 09:08:29;;;;;;;1.95;1.40;;;;;;;;;;6260346;28;20462;-81
2023/07/24 09:11:33;;;;;;;1.33;1.23;;;;;;;;;;6260230;28;20256;-80
2023/07/24 09:14:38;;;;;;;2.30;1.40;;;;;;;;;;6260696;28;20549;-81
2023/07/24 09:17:50;;;;;;;1.30;1.30;;;;;;;;;;6260212;28;20241;-81
2023/07/24 09:20:54;;;;;;;1.50;1.48;;;;;;;;;;6260100;28;20264;-81
2023/07/24 09:24:12;;;;;;;1.13;1.13;;;;;;;;;;6260781;28;20331;-81
2023/07/24 09:27:16;;;;;;;1.30;1.30;;;;;;;;;;6260626;28;20244;-80
2023/07/24 09:30:23;;;;;;;1.15;1.15;;;;;;;;;;6260376;28;20260;-81
2023/07/24 09:33:35;;;;;;;1.45;1.35;;;;;;;;;;6259941;28;20244;-81
2023/07/24 09:36:39;;;;;;;1.20;1.20;;;;;;;;;;6259980;28;20520;-81
2023/07/24 09:39:47;;;;;;;1.20;1.20;;;;;;;;;;6259889;28;20244;-81
2023/07/24 09:42:51;;;;;;;1.55;1.45;;;;;;;;;;6260130;28;20256;-81
2023/07/24 09:46:15;;;;;;;1.40;1.40;;;;;;;;;;6260293;28;20240;-81
2023/07/24 09:49:19;;;;;;;1.40;1.40;;;;;;;;;;6260282;28;20253;-81
2023/07/24 09:52:22;;;;;;;3.20;1.33;;;;;;;;;;6260073;28;20244;-80
2023/07/24 09:55:31;;;;;;;2.25;1.27;;;;;;;;;;6260062;28;20240;-80
2023/07/24 09:58:37;;;;;;;1.40;1.40;;;;;;;;;;6260076;28;20241;-81
2023/07/24 10:01:42;;;;;;;1.13;1.13;;;;;;;;;;6259713;28;20291;-82
2023/07/24 10:04:46;;;;;;;2.38;1.50;;;;;;;;;;6260021;28;20288;-81
2023/07/24 10:07:51;;;;;;;1.67;1.67;;;;;;;;;;6263972;28;20244;-81
2023/07/24 10:10:56;;;;;;;1.52;1.42;;;;;;;;;;6263944;28;20236;-81
2023/07/24 10:14:00;;;;;;;1.70;1.70;;;;;;;;;;6268079;28;20236;-80
2023/07/24 10:17:05;;;;;;;3.92;2.00;;;;;;;;;;6273892;28;20256;-81
2023/07/24 10:20:10;;;;;;;2.88;1.90;;;;;;;;;;6263863;28;20240;-81
2023/07/24 10:23:18;;;;;;;2.00;2.00;;;;;;;;;;6262000;28;20288;-81
2023/07/24 10:26:27;;;;;;;1.58;1.58;;;;;;;;;;6268195;28;20228;-80
2023/07/24 10:29:35;;;;;;;1.67;1.60;;;;;;;;;;6263698;28;20236;-81
2023/07/24 10:32:47;;;;;;;1.50;1.40;;;;;;;;;;6263197;28;20253;-80
2023/07/24 10:35:55;;;;;;;1.58;1.58;;;;;;;;;;6263355;28;20236;-80
2023/07/24 10:38:58;;;;;;;2.92;1.60;;;;;;;;;;6263157;28;20245;-80
2023/07/24 10:42:08;;;;;;;1.77;1.70;;;;;;;;;;6263197;28;20260;-80
2023/07/24 10:45:13;;;;;;;2.42;1.48;;;;;;;;;;6263116;28;20236;-81
2023/07/24 10:48:17;;;;;;;2.97;1.25;;;;;;;;;;6261582;28;20273;-80
2023/07/24 10:51:22;;;;;;;1.50;1.40;;;;;;;;;;6263426;28;20251;-81
2023/07/24 10:54:26;;;;;;;1.40;1.40;;;;;;;;;;6263137;28;20228;-81
2023/07/24 10:57:31;;;;;;;1.50;1.50;;;;;;;;;;6266436;28;20232;-80
2023/07/24 11:00:35;;;;;;;1.55;1.48;;;;;;;;;;6261293;28;20284;-80
2023/07/24 11:03:41;;;;;;;1.40;1.40;;;;;;;;;;6266328;28;20288;-81
2023/07/24 11:06:45;;;;;;;1.58;1.48;;;;;;;;;;6263229;28;20232;-80
2023/07/24 11:09:51;;;;;;;5.55;1.50;;;;;;;;;;6263144;28;20248;-80
2023/07/24 11:12:57;;;;;;;1.50;1.50;;;;;;;;;;6262817;28;20244;-80
2023/07/24 11:16:05;;;;;;;5.53;1.63;;;;;;;;;;6262547;28;20244;-80
2023/07/24 11:19:09;;;;;;;1.63;1.55;;;;;;;;;;6262069;28;20237;-80
2023/07/24 11:22:13;;;;;;;1.77;1.58;;;;;;;;;;6262290;28;20264;-80
2023/07/24 11:25:17;;;;;;;1.50;1.50;;;;;;;;;;6262306;28;20240;-80
2023/07/24 11:28:22;;;;;;;1.70;1.70;;;;;;;;;;6262228;28;20244;-80
2023/07/24 11:31:26;;;;;;;1.30;1.30;;;;;;;;;;6261944;28;20237;-80
2023/07/24 11:34:29;;;;;;;1.50;1.40;;;;;;;;;;6261856;28;20431;-80
2023/07/24 11:37:34;;;;;;;1.60;1.60;;;;;;;;;;6262305;28;20256;-80
2023/07/24 11:40:40;;;;;;;1.35;1.35;;;;;;;;;;6271617;28;20229;-79
2023/07/24 11:43:49;;;;;;;2.28;1.40;;;;;;;;;;6265705;28;20533;-80
2023/07/24 11:46:56;;;;;;;3.60;1.40;;;;;;;;;;6261597;28;20296;-81
2023/07/24 11:50:02;;;;;;;8.57;1.60;;;;;;;;;;6260330;28;20287;-80
2023/07/24 11:53:06;;;;;;;2.55;1.60;;;;;;;;;;6261952;28;20241;-81
2023/07/24 11:56:14;;;;;;;1.95;1.40;;;;;;;;;;6261984;28;20241;-80
2023/07/24 11:59:20;;;;;;;3.67;1.50;;;;;;;;;;6261908;28;20360;-80
2023/07/24 12:02:24;;;;;;;1.65;1.55;;;;;;;;;;6261311;28;20299;-80
2023/07/24 12:05:27;;;;;;;1.23;1.23;;;;;;;;;;6262583;28;20240;-80
2023/07/24 12:08:33;;;;;;;2.25;1.30;;;;;;;;;;6260745;28;20287;-80
2023/07/24 12:11:40;;;;;;;1.60;1.50;;;;;;;;;;6261353;28;20423;-79
2023/07/24 12:14:49;;;;;;;1.73;1.27;;;;;;;;;;6261370;28;20540;-79
2023/07/24 12:17:56;;;;;;;1.00;1.00;;;;;;;;;;6261549;28;20248;-80
2023/07/24 12:21:00;;;;;;;1.20;1.20;;;;;;;;;;6261145;28;20244;-80
2023/07/24 12:24:05;;;;;;;1.30;1.30;;;;;;;;;;6259532;28;20295;-80
2023/07/24 12:27:09;;;;;;;4.57;1.20;;;;;;;;;;6260527;28;20236;-80
2023/07/24 12:30:14;;;;;;;1.70;1.08;;;;;;;;;;6261137;28;20428;-80
2023/07/24 12:33:18;;;;;;;1.27;1.27;;;;;;;;;;6260848;28;20248;-80
2023/07/24 12:36:22;;;;;;;1.00;1.00;;;;;;;;;;6276322;28;20271;-79
2023/07/24 12:39:26;;;;;;;1.02;1.00;;;;;;;;;;6261110;28;20533;-80
2023/07/24 12:42:29;;;;;;;1.10;1.10;;;;;;;;;;6260475;28;20244;-79
2023/07/24 12:45:34;;;;;;;1.05;1.05;;;;;;;;;;6260642;28;20520;-80
2023/07/24 12:48:38;;;;;;;1.48;1.38;;;;;;;;;;6261289;28;20244;-80
2023/07/24 12:51:42;;;;;;;1.17;0.93;;;;;;;;;;6260635;28;20517;-79
2023/07/24 12:54:46;;;;;;;1.13;0.98;;;;;;;;;;6261434;28;20252;-80
2023/07/24 12:58:04;;;;;;;1.00;1.00;;;;;;;;;;6262402;28;20252;-79
2023/07/24 13:01:09;;;;;;;1.42;1.08;;;;;;;;;;6263508;28;20244;-79
2023/07/24 13:04:13;;;;;;;2.47;1.10;;;;;;;;;;6265636;28;20339;-80
2023/07/24 13:07:17;;;;;;;1.02;1.02;;;;;;;;;;6262583;28;20240;-80
2023/07/24 13:10:21;;;;;;;1.10;1.10;;;;;;;;;;6260707;28;20517;-79
2023/07/24 13:13:24;;;;;;;1.10;1.10;;;;;;;;;;6260586;28;20232;-80
2023/07/24 13:16:30;;;;;;;2.15;1.02;;;;;;;;;;6260230;28;20244;-79
2023/07/24 13:19:34;;;;;;;1.15;1.15;;;;;;;;;;6260243;28;20429;-80
2023/07/24 13:22:38;;;;;;;1.08;1.05;;;;;;;;;;6263086;28;20244;-80
2023/07/24 13:25:42;;;;;;;4.47;1.00;;;;;;;;;;6260095;28;20259;-81
2023/07/24 13:28:46;;;;;;;1.65;1.10;;;;;;;;;;6260225;28;20240;-80
2023/07/24 13:31:52;;;;;;;0.85;0.85;;;;;;;;;;6263601;28;20240;-80
2023/07/24 13:34:56;;;;;;;2.15;0.90;;;;;;;;;;6260646;28;20322;-80
2023/07/24 13:38:00;;;;;;;0.80;0.80;;;;;;;;;;6259914;28;20241;-80
2023/07/24 13:41:04;;;;;;;1.30;1.00;;;;;;;;;;6264898;28;20236;-80
2023/07/24 13:44:08;;;;;;;1.38;1.20;;;;;;;;;;6264868;28;20263;-80
2023/07/24 13:47:13;;;;;;;1.10;1.00;;;;;;;;;;6262745;28;20271;-79
2023/07/24 13:50:17;;;;;;;1.10;1.10;;;;;;;;;;6264342;28;20239;-80
2023/07/24 13:53:21;;;;;;;1.05;1.05;;;;;;;;;;6264295;28;20243;-80
2023/07/24 13:56:27;;;;;;;1.08;1.08;;;;;;;;;;6264141;28;20240;-80
2023/07/24 13:59:31;;;;;;;4.13;1.17;;;;;;;;;;6264566;28;20240;-81
2023/07/24 14:02:36;;;;;;;1.10;1.10;;;;;;;;;;6264041;28;20308;-80
2023/07/24 14:05:40;;;;;;;1.10;1.10;;;;;;;;;;6263995;28;20269;-79
2023/07/24 14:08:44;;;;;;;1.00;1.00;;;;;;;;;;6264726;28;20249;-78
2023/07/24 14:11:48;;;;;;;1.45;1.17;;;;;;;;;;6268883;28;20237;-79
2023/07/24 14:14:52;;;;;;;1.85;1.20;;;;;;;;;;6264779;28;20245;-80
2023/07/24 14:17:57;;;;;;;1.30;1.20;;;;;;;;;;6264415;28;20508;-79
2023/07/24 14:21:01;;;;;;;1.30;1.30;;;;;;;;;;6264957;28;20240;-80
2023/07/24 14:24:05;;;;;;;2.15;1.23;;;;;;;;;;6266131;28;20303;-79
2023/07/24 14:27:09;;;;;;;1.30;1.30;;;;;;;;;;6267124;28;20426;-79
2023/07/24 14:30:14;;;;;;;1.13;1.13;;;;;;;;;;6268337;28;20316;-79
2023/07/24 14:33:20;;;;;;;5.20;1.15;;;;;;;;;;6278401;28;20276;-79
2023/07/24 14:36:24;;;;;;;1.10;1.10;;;;;;;;;;6263543;28;20343;-79
2023/07/24 14:39:27;;;;;;;1.05;1.05;;;;;;;;;;6262079;28;20279;-79
2023/07/24 14:42:31;;;;;;;1.00;0.95;;;;;;;;;;6278209;28;20516;-80
2023/07/24 14:45:35;;;;;;;3.53;1.00;;;;;;;;;;6263432;28;20276;-80
2023/07/24 14:48:40;;;;;;;0.90;0.90;;;;;;;;;;6263183;28;20244;-79
2023/07/24 14:51:44;;;;;;;0.90;0.90;;;;;;;;;;6262590;28;20240;-80
2023/07/24 14:54:47;;;;;;;2.63;1.10;;;;;;;;;;6262958;28;20239;-80
2023/07/24 14:57:51;;;;;;;2.38;1.10;;;;;;;;;;6263373;28;20240;-80
2023/07/24 15:00:55;;;;;;;0.88;0.88;;;;;;;;;;6263199;28;20269;-80
2023/07/24 15:04:00;;;;;;;0.80;0.75;;;;;;;;;;6263249;28;20469;-81
2023/07/24 15:07:04;;;;;;;1.02;1.02;;;;;;;;;;6263089;28;20244;-80
2023/07/24 15:10:09;;;;;;;1.38;1.00;;;;;;;;;;6261312;28;20263;-80
2023/07/24 15:13:12;;;;;;;0.90;0.90;;;;;;;;;;6262761;28;20237;-80
2023/07/24 15:16:16;;;;;;;1.00;1.00;;;;;;;;;;6262573;28;20240;-80
2023/07/24 15:19:22;;;;;;;1.25;1.17;;;;;;;;;;6260976;28;20441;-80
2023/07/24 15:22:25;;;;;;;4.32;1.10;;;;;;;;;;6262417;28;20479;-80
2023/07/24 15:25:29;;;;;;;1.38;1.10;;;;;;;;;;6261981;28;20264;-80
2023/07/24 15:28:33;;;;;;;3.33;1.10;;;;;;;;;;6262194;28;20425;-80
2023/07/24 15:31:37;;;;;;;5.47;1.10;;;;;;;;;;6262410;28;20264;-80
2023/07/24 15:34:42;;;;;;;1.10;1.08;;;;;;;;;;6262494;28;20244;-80
2023/07/24 15:37:46;;;;;;;4.45;1.08;;;;;;;;;;6261014;28;20271;-80
2023/07/24 15:40:50;;;;;;;1.85;1.10;;;;;;;;;;6262473;28;20419;-80
2023/07/24 15:43:54;;;;;;;1.10;1.10;;;;;;;;;;6263192;28;20240;-79
2023/07/24 15:46:58;;;;;;;1.02;1.02;;;;;;;;;;6266194;28;20264;-80
2023/07/24 15:50:04;;;;;;;1.23;1.13;;;;;;;;;;6265961;28;20239;-79
2023/07/24 15:53:08;;;;;;;1.05;1.05;;;;;;;;;;6266511;28;20241;-80
2023/07/24 15:56:12;;;;;;;1.10;1.10;;;;;;;;;;6263451;28;20245;-78
2023/07/24 15:59:15;;;;;;;1.42;1.30;;;;;;;;;;6279020;28;20438;-79
2023/07/24 16:02:19;;;;;;;1.30;1.30;;;;;;;;;;6260213;28;20283;-80
2023/07/24 16:05:24;;;;;;;1.40;1.40;;;;;;;;;;6261436;28;20264;-80
2023/07/24 16:08:28;;;;;;;1.17;1.17;;;;;;;;;;6261082;28;20236;-80
2023/07/24 16:11:32;;;;;;;1.52;1.50;;;;;;;;;;6261126;28;20240;-80
2023/07/24 16:14:36;;;;;;;1.30;1.30;;;;;;;;;;6261668;28;20509;-80
2023/07/24 16:17:40;;;;;;;1.33;1.33;;;;;;;;;;6260983;28;20244;-80
2023/07/24 16:21:05;;;;;;;1.50;1.50;;;;;;;;;;6260969;28;20248;-80
2023/07/24 16:24:09;;;;;;;1.45;1.35;;;;;;;;;;6261229;28;20236;-80
2023/07/24 16:27:13;;;;;;;1.75;1.50;;;;;;;;;;6260846;28;20272;-80
2023/07/24 16:30:18;;;;;;;1.50;1.50;;;;;;;;;;6260967;28;20721;-80
2023/07/24 16:33:21;;;;;;;1.42;1.42;;;;;;;;;;6260965;28;20236;-80
2023/07/24 16:36:30;;;;;;;1.42;1.42;;;;;;;;;;6260817;28;20252;-79
2023/07/24 16:39:34;;;;;;;1.25;1.25;;;;;;;;;;6261029;28;20240;-79
2023/07/24 16:42:38;;;;;;;1.42;1.42;;;;;;;;;;6260199;28;20432;-79
2023/07/24 16:45:42;;;;;;;1.60;1.60;;;;;;;;;;6276152;28;20416;-80
2023/07/24 16:49:06;;;;;;;1.42;1.42;;;;;;;;;;6260488;28;20252;-79
2023/07/24 16:52:11;;;;;;;2.45;1.67;;;;;;;;;;6260224;28;20513;-79
2023/07/24 16:55:15;;;;;;;1.80;1.75;;;;;;;;;;6260113;28;20236;-80
2023/07/24 16:58:19;;;;;;;1.60;1.60;;;;;;;;;;6260632;28;20236;-79
2023/07/24 17:01:22;;;;;;;1.45;1.40;;;;;;;;;;6260466;28;20427;-79
2023/07/24 17:04:26;;;;;;;1.83;1.83;;;;;;;;;;6260651;28;20502;-78
2023/07/24 17:07:31;;;;;;;1.48;1.48;;;;;;;;;;6260243;28;20283;-79
2023/07/24 17:10:42;;;;;;;1.60;1.60;;;;;;;;;;6260723;28;20228;-80
2023/07/24 17:13:46;;;;;;;1.50;1.50;;;;;;;;;;6263505;28;20244;-80
2023/07/24 17:16:50;;;;;;;1.52;1.52;;;;;;;;;;6270270;28;20417;-80
2023/07/24 17:19:54;;;;;;;1.50;1.50;;;;;;;;;;6266948;28;20435;-81
2023/07/24 17:22:59;;;;;;;1.75;1.67;;;;;;;;;;6265034;28;20290;-78
2023/07/24 17:26:03;;;;;;;1.92;1.80;;;;;;;;;;6264325;28;20268;-80
2023/07/24 17:29:07;;;;;;;1.48;1.48;;;;;;;;;;6264393;28;20538;-79
2023/07/24 17:32:12;;;;;;;1.55;1.45;;;;;;;;;;6264340;28;20236;-79
2023/07/24 17:35:16;;;;;;;2.13;1.80;;;;;;;;;;6264528;28;20484;-79
2023/07/24 17:38:22;;;;;;;1.67;1.67;;;;;;;;;;6264213;28;20408;-78
2023/07/24 17:41:26;;;;;;;2.60;1.80;;;;;;;;;;6264606;28;20244;-80
2023/07/24 17:44:30;;;;;;;1.80;1.70;;;;;;;;;;6264142;28;20351;-79
2023/07/24 17:47:34;;;;;;;1.95;1.95;;;;;;;;;;6263824;28;20268;-79
2023/07/24 17:50:38;;;;;;;2.10;1.67;;;;;;;;;;6265068;28;20284;-79
2023/07/24 17:53:44;;;;;;;3.60;3.50;;;;;;;;;;6264700;28;20423;-79
2023/07/24 17:56:47;;;;;;;2.17;1.92;;;;;;;;;;6264160;28;20244;-81
2023/07/24 17:59:51;;;;;;;2.25;1.30;;;;;;;;;;6263423;28;20240;-78
2023/07/24 18:02:55;;;;;;;3.40;1.23;;;;;;;;;;6263586;28;20299;-80
2023/07/24 18:05:59;;;;;;;1.83;1.23;;;;;;;;;;6263826;28;20240;-79
2023/07/24 18:09:05;;;;;;;1.15;1.15;;;;;;;;;;6263810;28;20239;-79
2023/07/24 18:12:09;;;;;;;1.08;1.00;;;;;;;;;;6266369;28;20537;-80
2023/07/24 18:15:13;;;;;;;1.75;1.00;;;;;;;;;;6263612;28;20240;-80
2023/07/24 18:18:16;;;;;;;1.33;1.23;;;;;;;;;;6263747;28;20496;-79
2023/07/24 18:21:20;;;;;;;0.90;0.90;;;;;;;;;;6263457;28;20236;-80
2023/07/24 18:24:26;;;;;;;3.50;1.20;;;;;;;;;;6266372;28;20411;-79
2023/07/24 18:27:29;;;;;;;1.20;1.10;;;;;;;;;;6262869;28;20264;-81
2023/07/24 18:30:33;;;;;;;1.80;1.20;;;;;;;;;;6263150;28;20256;-78